Time;durP1;ratioP1;P1;durP2;ratioP2;P2;SDS_P1;SDS_P2;PMS_P1;PMS_P2;Temp;Humidity;BMP_temperature;BMP_pressure;BME280_temperature;BME280_humidity;BME280_pressure;Samples;Min_cycle;Max_cycle;Signal;HPM_P1;HPM_P2
2022/01/13 00:01:55;;;;;;;11.03;5.83;;;;;;;-13.59;63.96;101466.34;1701867;82;21087;-70
2022/01/13 00:04:21;;;;;;;11.38;4.62;;;;;;;-13.60;64.02;101470.97;1681949;84;21783;-69
2022/01/13 00:06:48;;;;;;;10.28;4.87;;;;;;;-13.60;64.02;101467.16;1671825;84;20997;-69
2022/01/13 00:09:15;;;;;;;12.28;5.20;;;;;;;-13.66;63.93;101466.52;1684423;83;21055;-69
2022/01/13 00:11:42;;;;;;;10.58;5.35;;;;;;;-13.68;63.97;101473.63;1703497;83;21051;-69
2022/01/13 00:20:19;;;;;;;10.48;5.20;;;;;;;-13.78;64.10;101472.84;1700591;83;21019;-70
2022/01/13 00:22:14;;;;;;;9.23;4.35;;;;;;;-13.78;64.19;101491.89;1684956;83;21071;-70
2022/01/13 00:24:31;;;;;;;10.68;4.95;;;;;;;-13.79;64.25;101491.02;1676215;84;21012;-70
2022/01/13 00:26:58;;;;;;;10.25;4.78;;;;;;;-13.83;64.34;101489.57;1697095;84;21450;-70
2022/01/13 00:29:29;;;;;;;10.18;5.17;;;;;;;-13.87;64.45;101493.27;1697074;84;21748;-70
2022/01/13 00:31:52;;;;;;;11.20;4.78;;;;;;;-13.90;64.55;101485.92;1684734;84;21464;-70
2022/01/13 00:34:19;;;;;;;9.15;5.12;;;;;;;-13.91;64.60;101481.25;1690920;84;21066;-70
2022/01/13 00:36:45;;;;;;;13.68;5.20;;;;;;;-13.88;64.62;101485.20;1684324;84;21009;-70
2022/01/13 00:39:12;;;;;;;10.03;4.78;;;;;;;-13.86;64.61;101485.25;1691256;83;21001;-69
2022/01/13 00:41:39;;;;;;;10.63;5.55;;;;;;;-13.87;64.69;101486.06;1692373;84;22630;-70
2022/01/13 00:44:08;;;;;;;11.22;5.62;;;;;;;-13.87;64.76;101483.12;1704097;84;20999;-70
2022/01/13 00:46:47;;;;;;;11.48;5.62;;;;;;;-13.84;64.77;101485.30;1692535;84;21445;-70
2022/01/13 00:49:11;;;;;;;11.33;5.22;;;;;;;-13.83;64.84;101476.47;1695486;84;21063;-69
2022/01/13 00:51:37;;;;;;;10.85;5.45;;;;;;;-13.82;64.91;101478.59;1694393;84;21383;-70
2022/01/13 00:54:05;;;;;;;10.85;5.25;;;;;;;-13.83;64.91;101467.98;1690922;84;21770;-70
2022/01/13 00:56:33;;;;;;;10.60;5.45;;;;;;;-13.85;64.92;101482.30;1672229;83;21043;-74
2022/01/13 00:59:07;;;;;;;10.08;5.95;;;;;;;-13.88;64.99;101475.05;1684045;84;21518;-70
2022/01/13 01:01:35;;;;;;;12.13;5.78;;;;;;;-13.89;65.03;101479.66;1689115;83;21012;-69
2022/01/13 01:04:03;;;;;;;11.95;5.47;;;;;;;-13.91;65.08;101472.37;1687826;84;21076;-69
2022/01/13 01:06:30;;;;;;;11.22;5.78;;;;;;;-13.92;65.10;101458.35;1693207;84;21865;-69
2022/01/13 01:08:57;;;;;;;11.85;6.00;;;;;;;-13.96;65.10;101461.20;1690209;84;21404;-69
2022/01/13 01:11:27;;;;;;;10.48;5.00;;;;;;;-13.99;65.11;101459.83;1686621;84;21368;-69
2022/01/13 01:13:54;;;;;;;15.28;6.33;;;;;;;-13.98;65.16;101456.47;1689481;84;21012;-69
2022/01/13 01:16:21;;;;;;;13.93;6.97;;;;;;;-14.02;65.08;101444.45;1686169;83;21569;-69
2022/01/13 01:21:36;;;;;;;10.08;4.62;;;;;;;-14.02;65.19;101442.33;1688860;84;21024;-69
2022/01/13 01:26:47;;;;;;;10.78;5.58;;;;;;;-14.05;65.13;101440.95;1694170;83;21141;-70
2022/01/13 01:29:23;;;;;;;11.43;6.60;;;;;;;-14.09;65.08;101437.41;1695477;84;21043;-70
2022/01/13 01:31:52;;;;;;;11.97;5.83;;;;;;;-14.12;65.11;101422.08;1690001;84;21791;-70
2022/01/13 01:36:48;;;;;;;13.15;6.35;;;;;;;-14.13;65.11;101436.85;1673710;84;21375;-69
2022/01/13 01:39:15;;;;;;;11.35;6.15;;;;;;;-14.12;65.11;101444.06;1695728;83;21007;-69
2022/01/13 01:41:45;;;;;;;13.60;6.42;;;;;;;-14.17;65.10;101447.71;1694223;84;21023;-69
2022/01/13 01:44:14;;;;;;;10.63;5.78;;;;;;;-14.20;65.22;101458.59;1686354;84;22474;-69
2022/01/13 01:46:45;;;;;;;15.43;7.30;;;;;;;-14.22;65.32;101458.08;1678298;84;21004;-69
2022/01/13 01:49:25;;;;;;;13.45;7.30;;;;;;;-14.27;65.36;101451.98;1675070;84;21016;-69
2022/01/13 01:51:53;;;;;;;14.45;7.42;;;;;;;-14.34;65.42;101447.06;1693993;83;21047;-69
2022/01/13 01:54:20;;;;;;;12.73;6.45;;;;;;;-14.37;65.38;101453.70;1692170;84;21051;-69
2022/01/13 01:56:46;;;;;;;16.25;8.23;;;;;;;-14.39;65.49;101456.16;1695303;83;21777;-69
2022/01/13 01:59:16;;;;;;;19.95;8.10;;;;;;;-14.41;65.47;101448.03;1692432;84;21758;-69
2022/01/13 02:01:43;;;;;;;19.07;8.08;;;;;;;-14.40;65.49;101444.69;1684156;84;21095;-69
2022/01/13 02:04:09;;;;;;;16.07;7.83;;;;;;;-14.41;65.51;101453.97;1694242;84;21082;-69
2022/01/13 02:06:37;;;;;;;18.32;8.50;;;;;;;-14.41;65.56;101461.98;1690096;84;21545;-68
2022/01/13 02:09:06;;;;;;;19.98;7.60;;;;;;;-14.46;65.50;101456.78;1695986;84;21857;-70
2022/01/13 02:11:42;;;;;;;13.98;7.30;;;;;;;-14.48;65.58;101454.16;1686707;84;21001;-69
2022/01/13 02:14:20;;;;;;;16.12;7.28;;;;;;;-14.48;65.58;101449.49;1702151;83;21482;-69
2022/01/13 02:16:44;;;;;;;19.20;9.20;;;;;;;-14.48;65.55;101448.22;1678338;84;21049;-69
2022/01/13 02:19:04;;;;;;;19.42;8.93;;;;;;;-14.53;65.52;101455.67;1690192;83;21412;-69
2022/01/13 02:21:31;;;;;;;17.02;8.38;;;;;;;-14.56;65.62;101459.36;1696892;84;21877;-69
2022/01/13 02:23:57;;;;;;;15.00;7.58;;;;;;;-14.55;65.64;101452.62;1688305;84;21015;-70
2022/01/13 02:26:23;;;;;;;16.42;7.50;;;;;;;-14.55;65.68;101450.95;1691748;84;21487;-69
2022/01/13 02:28:51;;;;;;;21.27;9.65;;;;;;;-14.54;65.68;101460.28;1691897;84;21019;-70
2022/01/13 02:31:19;;;;;;;25.20;12.40;;;;;;;-14.55;65.76;101452.62;1686248;83;21475;-70
2022/01/13 02:33:45;;;;;;;15.40;8.70;;;;;;;-14.58;65.77;101455.88;1690480;83;21815;-70
2022/01/13 02:36:12;;;;;;;20.32;9.75;;;;;;;-14.62;65.79;101448.97;1695559;84;21011;-70
2022/01/13 02:38:39;;;;;;;20.32;9.18;;;;;;;-14.61;65.88;101466.31;1655021;84;21569;-69
2022/01/13 02:41:06;;;;;;;27.40;13.13;;;;;;;-14.60;65.83;101464.23;1689502;84;20972;-70
2022/01/13 02:43:34;;;;;;;22.75;9.65;;;;;;;-14.62;65.81;101454.04;1693698;84;21083;-69
2022/01/13 02:46:07;;;;;;;26.20;11.40;;;;;;;-14.67;65.79;101455.92;1693502;84;21831;-69
2022/01/13 02:48:33;;;;;;;24.40;11.93;;;;;;;-14.69;65.89;101455.86;1693443;84;21075;-69
2022/01/13 02:50:59;;;;;;;21.40;10.75;;;;;;;-14.70;65.95;101468.08;1686780;83;21044;-70
2022/01/13 02:53:26;;;;;;;21.57;10.50;;;;;;;-14.70;66.07;101465.95;1686196;84;20965;-69
2022/01/13 02:56:01;;;;;;;20.52;9.78;;;;;;;-14.71;66.08;101468.89;1700733;84;21011;-69
2022/01/13 02:58:25;;;;;;;16.90;7.37;;;;;;;-14.70;66.06;101460.87;1694246;84;22592;-69
2022/01/13 03:00:51;;;;;;;21.70;10.23;;;;;;;-14.69;66.00;101449.52;1682781;84;21009;-69
2022/01/13 03:03:19;;;;;;;19.87;9.60;;;;;;;-14.77;65.97;101450.48;1680902;84;21023;-69
2022/01/13 03:05:46;;;;;;;19.98;9.80;;;;;;;-14.78;66.11;101439.02;1689411;84;21222;-69
2022/01/13 03:08:12;;;;;;;19.45;9.50;;;;;;;-14.80;66.21;101432.63;1679089;84;21554;-69
2022/01/13 03:10:39;;;;;;;17.92;9.43;;;;;;;-14.78;66.25;101432.67;1696905;83;23863;-70
2022/01/13 03:13:07;;;;;;;23.47;9.83;;;;;;;-14.75;66.33;101429.02;1688616;84;20953;-69
2022/01/13 03:15:34;;;;;;;24.40;10.85;;;;;;;-14.74;66.33;101433.28;1683270;83;21012;-69
2022/01/13 03:18:01;;;;;;;39.23;16.62;;;;;;;-14.74;66.37;101429.48;1677699;84;21166;-69
2022/01/13 03:20:27;;;;;;;22.32;10.50;;;;;;;-14.72;66.38;101422.78;1674366;84;20972;-70
2022/01/13 03:22:54;;;;;;;21.20;9.75;;;;;;;-14.70;66.33;101423.70;1691326;84;21824;-69
2022/01/13 03:25:24;;;;;;;27.07;12.90;;;;;;;-14.71;66.38;101419.84;1679820;84;21008;-70
2022/01/13 03:27:57;;;;;;;35.23;16.60;;;;;;;-14.73;66.37;101412.19;1696692;84;21000;-70
2022/01/13 03:30:21;;;;;;;24.95;10.43;;;;;;;-14.69;66.42;101406.81;1682002;83;21048;-69
2022/01/13 03:32:48;;;;;;;23.05;10.53;;;;;;;-14.65;66.41;101402.34;1692134;84;21014;-70
2022/01/13 03:35:14;;;;;;;19.32;9.93;;;;;;;-14.66;66.32;101405.69;1686455;85;22440;-70
2022/01/13 03:37:41;;;;;;;19.70;9.40;;;;;;;-14.69;66.29;101402.61;1673335;84;21019;-70
2022/01/13 03:40:10;;;;;;;20.70;9.58;;;;;;;-14.70;66.30;101405.09;1667301;84;21088;-70
2022/01/13 03:42:37;;;;;;;27.30;11.93;;;;;;;-14.69;66.37;101405.55;1682344;84;21020;-69
2022/01/13 03:45:04;;;;;;;21.07;10.48;;;;;;;-14.72;66.33;101402.50;1691975;84;21068;-69
2022/01/13 03:47:30;;;;;;;20.27;9.13;;;;;;;-14.72;66.30;101412.64;1687642;84;21791;-69
2022/01/13 03:49:57;;;;;;;20.02;9.40;;;;;;;-14.74;66.35;101400.31;1679804;84;21017;-69
2022/01/13 03:52:32;;;;;;;23.05;9.75;;;;;;;-14.75;66.32;101399.86;1684635;83;21025;-69
2022/01/13 03:55:38;;;;;;;19.50;9.10;;;;;;;-14.78;66.36;101399.31;1684582;84;21040;-70
2022/01/13 03:58:50;;;;;;;21.95;9.78;;;;;;;-14.78;66.39;101403.11;1690831;84;20956;-70
2022/01/13 04:01:50;;;;;;;21.17;10.15;;;;;;;-14.79;66.38;101400.52;1688475;84;21766;-70
2022/01/13 04:04:16;;;;;;;21.73;9.50;;;;;;;-14.82;66.36;101399.14;1687166;84;21013;-69
2022/01/13 04:06:44;;;;;;;21.62;11.05;;;;;;;-14.86;66.33;101404.88;1683482;84;21037;-69
2022/01/13 04:09:35;;;;;;;22.40;10.38;;;;;;;-14.87;66.37;101423.03;1680301;84;21079;-69
2022/01/13 04:12:07;;;;;;;22.58;10.32;;;;;;;-14.83;66.45;101424.91;1682443;84;21016;-69
2022/01/13 04:14:49;;;;;;;20.75;9.78;;;;;;;-14.81;66.40;101433.43;1681441;84;21831;-68
2022/01/13 04:17:18;;;;;;;24.47;11.95;;;;;;;-14.84;66.32;101414.70;1678735;84;20953;-69
2022/01/13 04:19:45;;;;;;;30.52;13.13;;;;;;;-14.86;66.29;101398.55;1669520;85;20980;-69
2022/01/13 04:22:14;;;;;;;39.78;17.10;;;;;;;-14.85;66.30;101392.70;1665986;85;21092;-69
2022/01/13 04:24:47;;;;;;;32.30;14.30;;;;;;;-14.89;66.22;101399.70;1661880;85;21067;-70
2022/01/13 04:27:23;;;;;;;;;;;;;;;-14.90;66.25;101401.78;1683369;84;21807;-69
2022/01/13 04:30:10;;;;;;;29.45;12.28;;;;;;;-14.93;66.21;101416.47;1678910;85;20208;-69
2022/01/13 04:32:18;;;;;;;22.55;11.57;;;;;;;-14.99;66.19;101422.95;1672647;84;20996;-69
2022/01/13 04:34:44;;;;;;;23.27;11.18;;;;;;;-15.03;66.29;101433.38;1652456;84;21056;-70
2022/01/13 04:37:10;;;;;;;20.57;9.45;;;;;;;-15.01;66.35;101443.17;1672397;85;21020;-69
2022/01/13 04:39:37;;;;;;;23.05;11.00;;;;;;;-14.98;66.37;101443.69;1680468;84;22648;-69
2022/01/13 04:42:07;;;;;;;22.22;10.28;;;;;;;-14.99;66.29;101445.77;1674793;85;21280;-69
2022/01/13 04:44:32;;;;;;;20.48;10.32;;;;;;;-15.00;66.30;101448.70;1680520;84;21087;-69
2022/01/13 04:46:59;;;;;;;22.82;11.03;;;;;;;-14.99;66.33;101453.38;1677935;85;21056;-69
2022/01/13 04:49:26;;;;;;;21.10;9.35;;;;;;;-14.97;66.35;101445.42;1668374;85;21043;-70
2022/01/13 04:51:52;;;;;;;20.60;10.60;;;;;;;-14.95;66.35;101451.04;1678556;84;21495;-70
2022/01/13 04:54:18;;;;;;;28.27;11.48;;;;;;;-14.94;66.27;101443.03;1655642;85;20989;-69
2022/01/13 04:57:14;;;;;;;25.37;11.05;;;;;;;-14.97;66.21;101436.55;1677637;85;20941;-70
2022/01/13 04:59:13;;;;;;;24.98;11.40;;;;;;;-15.01;66.23;101440.64;1677278;84;21631;-70
2022/01/13 05:01:40;;;;;;;26.40;12.73;;;;;;;-15.04;66.20;101436.72;1665872;86;21555;-71
2022/01/13 05:04:06;;;;;;;29.25;13.40;;;;;;;-15.08;66.24;101438.66;1627595;86;21776;-71
2022/01/13 05:06:34;;;;;;;23.05;11.75;;;;;;;-15.10;66.30;101436.46;1654060;84;21114;-67
2022/01/13 05:09:01;;;;;;;22.85;10.75;;;;;;;-15.08;66.43;101438.25;1691875;84;21100;-67
2022/01/13 05:11:28;;;;;;;26.62;13.03;;;;;;;-15.06;66.47;101434.50;1697702;84;21024;-68
2022/01/13 05:13:54;;;;;;;26.60;12.47;;;;;;;-15.04;66.58;101424.91;1701892;83;21048;-68
2022/01/13 05:16:32;;;;;;;27.42;12.68;;;;;;;-15.04;66.58;101414.78;1672848;84;21901;-69
2022/01/13 05:19:11;;;;;;;24.75;11.35;;;;;;;-15.02;66.60;101417.77;1680556;84;21036;-68
2022/01/13 05:21:37;;;;;;;25.45;11.95;;;;;;;-15.02;66.57;101418.63;1692080;84;21059;-68
2022/01/13 05:23:52;;;;;;;27.98;11.93;;;;;;;-15.04;66.63;101422.78;1675464;84;21110;-69
2022/01/13 05:26:21;;;;;;;30.88;13.60;;;;;;;-15.07;66.72;101420.97;1674633;84;20964;-69
2022/01/13 05:28:50;;;;;;;28.42;12.63;;;;;;;-15.12;66.76;101411.06;1693086;84;21898;-68
2022/01/13 05:31:18;;;;;;;24.18;10.60;;;;;;;-15.14;66.83;101406.34;1687683;84;21481;-68
2022/01/13 05:33:44;;;;;;;24.18;11.08;;;;;;;-15.15;66.85;101403.34;1674675;84;21040;-69
2022/01/13 05:36:12;;;;;;;25.40;11.73;;;;;;;-15.15;66.92;101408.41;1684948;84;21096;-68
2022/01/13 05:38:42;;;;;;;23.77;9.73;;;;;;;-15.14;66.97;101404.21;1681076;83;20928;-69
2022/01/13 05:41:09;;;;;;;29.12;12.80;;;;;;;-15.14;67.07;101396.20;1681437;84;21819;-66
2022/01/13 05:43:36;;;;;;;24.37;11.65;;;;;;;-15.12;67.10;101403.86;1682631;84;21555;-68
2022/01/13 05:46:03;;;;;;;20.90;11.08;;;;;;;-15.11;67.14;101396.32;1692070;84;21020;-68
2022/01/13 05:48:31;;;;;;;18.67;9.63;;;;;;;-15.10;67.17;101402.25;1692348;84;21078;-67
2022/01/13 05:50:59;;;;;;;24.70;11.70;;;;;;;-15.09;67.20;101405.25;1702185;83;21438;-67
2022/01/13 05:53:25;;;;;;;23.07;11.63;;;;;;;-15.11;67.24;101400.13;1692556;82;21748;-67
2022/01/13 05:55:52;;;;;;;23.27;10.30;;;;;;;-15.09;67.34;101403.58;1691816;83;20956;-68
2022/01/13 05:58:19;;;;;;;24.98;11.95;;;;;;;-15.06;67.37;101400.29;1699811;84;20975;-68
2022/01/13 06:00:45;;;;;;;25.45;11.43;;;;;;;-15.04;67.43;101397.44;1692032;84;20992;-68
2022/01/13 06:03:12;;;;;;;29.37;14.18;;;;;;;-15.01;67.47;101394.16;1691427;83;21479;-67
2022/01/13 06:05:38;;;;;;;27.98;12.90;;;;;;;-15.00;67.50;101394.21;1686083;84;21832;-67
2022/01/13 06:08:05;;;;;;;33.33;15.08;;;;;;;-14.98;67.54;101395.12;1691741;84;20959;-68
2022/01/13 06:10:32;;;;;;;30.30;15.05;;;;;;;-14.95;67.61;101393.14;1692965;84;21017;-68
2022/01/13 06:12:59;;;;;;;32.23;14.20;;;;;;;-14.92;67.63;101390.31;1702769;84;21382;-68
2022/01/13 06:15:26;;;;;;;30.10;14.78;;;;;;;-14.89;67.68;101390.83;1689474;85;21008;-68
2022/01/13 06:17:54;;;;;;;28.30;13.78;;;;;;;-14.85;67.72;101392.30;1689498;84;21797;-68
2022/01/13 06:20:21;;;;;;;28.10;12.55;;;;;;;-14.79;67.78;101395.05;1682517;85;21430;-68
2022/01/13 06:22:49;;;;;;;26.10;13.38;;;;;;;-14.72;67.83;101391.09;1682489;83;20983;-67
2022/01/13 06:25:16;;;;;;;28.45;13.85;;;;;;;-14.68;67.82;101390.39;1682327;83;21481;-67
2022/01/13 06:27:43;;;;;;;29.40;14.00;;;;;;;-14.64;67.86;101393.53;1688268;83;21071;-68
2022/01/13 06:30:14;;;;;;;23.00;12.03;;;;;;;-14.59;67.87;101399.63;1682532;84;21803;-67
2022/01/13 06:32:42;;;;;;;35.30;15.20;;;;;;;-14.55;67.92;101394.28;1681841;85;21046;-67
2022/01/13 06:35:10;;;;;;;34.50;13.75;;;;;;;-14.53;67.96;101393.53;1682176;85;20979;-68
2022/01/13 06:37:36;;;;;;;29.87;14.25;;;;;;;-14.49;68.06;101390.28;1682128;85;20999;-68
2022/01/13 06:40:05;;;;;;;27.85;12.60;;;;;;;-14.48;68.13;101394.55;1683245;84;21022;-68
2022/01/13 06:42:33;;;;;;;28.40;13.62;;;;;;;-14.42;68.24;101382.88;1688208;84;21826;-68
2022/01/13 06:44:59;;;;;;;28.62;14.00;;;;;;;-14.36;68.36;101382.72;1689311;84;21002;-67
2022/01/13 06:47:26;;;;;;;28.60;11.93;;;;;;;-14.29;68.48;101385.92;1692540;84;21028;-68
2022/01/13 06:49:52;;;;;;;30.60;13.93;;;;;;;-14.21;68.55;101387.48;1697379;84;21460;-68
2022/01/13 06:52:19;;;;;;;33.60;15.20;;;;;;;-14.14;68.65;101381.83;1696161;84;21015;-68
2022/01/13 06:54:45;;;;;;;39.20;18.35;;;;;;;-14.05;68.69;101383.84;1693999;84;21818;-68
2022/01/13 06:57:13;;;;;;;33.35;14.47;;;;;;;-13.96;68.76;101388.84;1689935;84;20975;-69
2022/01/13 06:59:40;;;;;;;34.85;15.10;;;;;;;-13.87;68.84;101384.50;1702635;84;21070;-68
2022/01/13 07:02:07;;;;;;;41.63;17.17;;;;;;;-13.77;68.85;101389.49;1672795;85;20955;-68
2022/01/13 07:04:34;;;;;;;33.50;14.45;;;;;;;-13.69;68.89;101385.55;1690702;84;21083;-68
2022/01/13 07:07:00;;;;;;;38.55;16.85;;;;;;;-13.60;69.04;101387.14;1687749;84;21820;-68
2022/01/13 07:09:27;;;;;;;28.90;11.55;;;;;;;-13.48;69.16;101385.41;1719044;83;20959;-70
2022/01/13 07:11:55;;;;;;;28.80;12.60;;;;;;;-13.35;69.24;101391.35;1678010;84;21047;-70
2022/01/13 07:14:21;;;;;;;54.77;21.10;;;;;;;-13.23;69.25;101396.83;1696270;83;21012;-69
2022/01/13 07:16:48;;;;;;;33.42;18.42;;;;;;;-13.11;69.28;101383.66;1720088;83;20963;-70
2022/01/13 07:19:15;;;;;;;22.77;10.18;;;;;;;-13.00;69.32;101384.86;1676437;84;21777;-71
2022/01/13 07:21:44;;;;;;;22.62;9.65;;;;;;;-12.91;69.33;101381.34;1701533;83;20980;-72
2022/01/13 07:24:10;;;;;;;19.70;9.38;;;;;;;-12.81;69.31;101379.94;1725383;83;21630;-71
2022/01/13 07:26:37;;;;;;;16.80;8.55;;;;;;;-12.68;69.34;101381.17;1683825;83;21295;-70
2022/01/13 07:29:04;;;;;;;16.17;8.40;;;;;;;-12.55;69.33;101386.67;1700047;84;21075;-72
2022/01/13 07:31:32;;;;;;;19.37;9.55;;;;;;;-12.45;69.33;101378.52;1710652;83;21821;-71
2022/01/13 07:33:58;;;;;;;17.85;8.28;;;;;;;-12.32;69.34;101375.05;1689811;83;21054;-73
2022/01/13 07:36:24;;;;;;;13.48;6.95;;;;;;;-12.23;69.29;101364.73;1698104;84;21055;-71
2022/01/13 07:38:51;;;;;;;16.20;8.05;;;;;;;-12.12;69.29;101351.02;1702293;84;21542;-74
2022/01/13 07:41:17;;;;;;;15.48;7.40;;;;;;;-12.01;69.22;101344.95;1679398;84;21035;-72
2022/01/13 07:43:47;;;;;;;16.97;7.97;;;;;;;-11.91;69.21;101340.55;1692217;84;21807;-67
2022/01/13 07:46:12;;;;;;;15.20;8.10;;;;;;;-11.82;69.09;101338.25;1703558;84;21095;-68
2022/01/13 07:48:38;;;;;;;13.35;7.28;;;;;;;-11.74;69.07;101331.65;1700706;84;21550;-68
2022/01/13 07:51:06;;;;;;;16.12;8.15;;;;;;;-11.64;69.15;101324.69;1697194;84;21398;-68
2022/01/13 07:53:33;;;;;;;19.82;9.53;;;;;;;-11.52;69.05;101312.66;1705166;83;21015;-67
2022/01/13 07:55:59;;;;;;;21.30;9.05;;;;;;;-11.41;69.05;101309.10;1689867;84;22178;-67
2022/01/13 07:58:26;;;;;;;20.65;10.08;;;;;;;-11.32;68.92;101299.13;1679101;84;20996;-68
2022/01/13 08:00:53;;;;;;;26.82;12.00;;;;;;;-11.24;68.81;101301.87;1687838;83;21015;-68
2022/01/13 08:03:20;;;;;;;26.52;11.10;;;;;;;-11.14;68.76;101302.53;1704903;83;21039;-68
2022/01/13 08:05:48;;;;;;;29.32;12.75;;;;;;;-11.06;68.72;101301.02;1698893;83;21020;-70
2022/01/13 08:08:15;;;;;;;25.75;9.95;;;;;;;-10.98;68.59;101308.03;1704595;84;21829;-74
2022/01/13 08:10:41;;;;;;;22.85;11.20;;;;;;;-10.88;68.51;101301.86;1691058;84;21142;-73
2022/01/13 08:13:08;;;;;;;20.70;10.70;;;;;;;-10.81;68.32;101290.52;1707825;84;21439;-72
2022/01/13 08:15:35;;;;;;;21.97;10.38;;;;;;;-10.74;68.37;101291.11;1706355;84;21406;-73
2022/01/13 08:20:47;;;;;;;17.07;8.40;;;;;;;-10.55;68.09;101293.64;1707790;84;22177;-71
2022/01/13 08:23:14;;;;;;;16.87;9.18;;;;;;;-10.47;68.02;101279.34;1719724;83;20987;-68
2022/01/13 08:25:40;;;;;;;20.02;9.38;;;;;;;-10.40;67.95;101286.31;1705118;84;21074;-68
2022/01/13 08:28:07;;;;;;;19.45;9.53;;;;;;;-10.31;67.85;101285.63;1691603;84;21488;-68
2022/01/13 08:30:33;;;;;;;24.57;11.03;;;;;;;-10.21;67.80;101282.39;1691557;84;21451;-68
2022/01/13 08:32:59;;;;;;;20.88;11.00;;;;;;;-10.15;67.68;101274.83;1691345;84;22194;-67
2022/01/13 08:35:26;;;;;;;16.65;8.90;;;;;;;-10.07;67.53;101272.84;1682000;84;20949;-70
2022/01/13 08:37:52;;;;;;;22.80;10.48;;;;;;;-10.01;67.47;101267.44;1706144;84;21504;-72
2022/01/13 08:40:19;;;;;;;21.90;10.23;;;;;;;-9.94;67.26;101270.56;1705867;82;20973;-70
2022/01/13 08:42:46;;;;;;;22.13;11.93;;;;;;;-9.87;67.23;101263.84;1705124;84;21051;-69
2022/01/13 08:45:13;;;;;;;29.32;12.60;;;;;;;-9.79;67.18;101251.20;1704800;84;21824;-69
2022/01/13 08:47:40;;;;;;;32.03;15.05;;;;;;;-9.69;67.11;101249.24;1692400;84;21404;-69
2022/01/13 08:50:08;;;;;;;23.02;11.57;;;;;;;-9.61;66.99;101250.23;1692048;84;21020;-68
2022/01/13 08:52:38;;;;;;;22.73;11.80;;;;;;;-9.55;66.87;101242.67;1682459;84;21012;-70
2022/01/13 08:55:07;;;;;;;21.95;10.15;;;;;;;-9.47;66.68;101235.95;1707524;84;21039;-71
2022/01/13 08:57:34;;;;;;;26.30;13.62;;;;;;;-9.42;66.45;101238.61;1704540;82;21806;-71
2022/01/13 09:00:00;;;;;;;33.85;15.95;;;;;;;-9.35;66.36;101228.50;1699123;84;21064;-70
2022/01/13 09:02:32;;;;;;;54.70;23.85;;;;;;;-9.25;66.17;101230.36;1678080;84;21023;-70
2022/01/13 09:04:55;;;;;;;40.05;18.10;;;;;;;-9.15;66.19;101224.95;1707301;83;20968;-71
2022/01/13 09:07:22;;;;;;;44.80;18.52;;;;;;;-9.01;66.14;101218.31;1707782;84;21091;-73
2022/01/13 09:09:48;;;;;;;30.88;14.33;;;;;;;-8.85;66.02;101210.42;1705452;82;21392;-71
2022/01/13 09:12:17;;;;;;;18.10;9.98;;;;;;;-8.71;65.79;101201.62;1704862;84;47894;-72
2022/01/13 09:14:44;;;;;;;15.03;7.58;;;;;;;-8.56;65.48;101204.38;1705154;83;21012;-72
2022/01/13 09:17:19;;;;;;;13.45;6.25;;;;;;;-8.42;65.00;101208.37;1696554;84;21489;-71
2022/01/13 09:19:41;;;;;;;12.45;6.47;;;;;;;-8.32;64.25;101205.03;1704364;83;21415;-71
2022/01/13 09:22:07;;;;;;;13.25;7.45;;;;;;;-8.22;63.69;101199.16;1697310;84;21871;-71
2022/01/13 09:24:34;;;;;;;13.10;7.33;;;;;;;-8.17;63.06;101195.38;1704950;82;21310;-73
2022/01/13 09:27:00;;;;;;;14.25;7.40;;;;;;;-8.10;62.76;101209.55;1697233;84;21087;-73
2022/01/13 09:29:28;;;;;;;17.95;7.53;;;;;;;-7.98;62.74;101203.67;1705017;84;21016;-72
2022/01/13 09:31:54;;;;;;;13.98;7.25;;;;;;;-7.78;62.91;101211.55;1697469;84;21470;-73
2022/01/13 09:34:21;;;;;;;16.10;7.97;;;;;;;-7.54;62.64;101209.59;1704012;84;21847;-73
2022/01/13 09:36:47;;;;;;;14.70;6.53;;;;;;;-7.35;62.16;101211.44;1697370;84;20964;-71
2022/01/13 09:39:13;;;;;;;14.83;7.47;;;;;;;-7.16;61.71;101204.72;1705072;84;21499;-71
2022/01/13 09:41:43;;;;;;;19.90;9.18;;;;;;;-7.03;61.01;101185.98;1697283;84;21059;-72
2022/01/13 09:44:10;;;;;;;22.60;9.05;;;;;;;-6.87;60.76;101181.77;1697725;84;21478;-72
2022/01/13 09:46:37;;;;;;;19.37;9.15;;;;;;;-6.74;60.16;101164.29;1697991;84;21807;-72
2022/01/13 09:49:06;;;;;;;20.60;9.35;;;;;;;-6.69;59.41;101151.45;1697747;84;20948;-70
2022/01/13 09:51:34;;;;;;;15.85;7.53;;;;;;;-6.71;58.84;101138.60;1696704;84;21044;-71
2022/01/13 09:54:00;;;;;;;19.55;8.80;;;;;;;-6.72;57.90;101120.19;1705010;82;21086;-70
2022/01/13 09:56:27;;;;;;;15.40;7.45;;;;;;;-6.72;57.90;101108.63;1697380;83;21427;-72
2022/01/13 09:58:53;;;;;;;14.53;6.72;;;;;;;-6.69;58.04;101113.77;1705137;84;22483;-72
2022/01/13 10:01:20;;;;;;;16.90;7.58;;;;;;;-6.59;57.37;101109.52;1697409;84;20967;-72
2022/01/13 10:03:47;;;;;;;23.22;9.48;;;;;;;-6.54;56.75;101098.83;1697188;84;21020;-73
2022/01/13 10:06:16;;;;;;;23.45;10.08;;;;;;;-6.47;56.57;101091.54;1697476;84;21419;-72
2022/01/13 10:08:50;;;;;;;12.43;5.90;;;;;;;-6.46;56.35;101077.86;1694575;84;21072;-73
2022/01/13 10:11:35;;;;;;;11.83;5.87;;;;;;;-6.44;56.10;101081.28;1690937;84;21875;-74
2022/01/13 10:16:22;;;;;;;10.88;5.67;;;;;;;-6.46;56.12;101055.16;1695907;83;21028;-72
2022/01/13 10:16:48;;;;;;;10.35;5.92;;;;;;;-6.41;56.13;101053.44;1684428;84;21051;-72
2022/01/13 10:19:42;;;;;;;11.00;5.53;;;;;;;-6.40;55.94;101041.02;1690777;84;21012;-72
2022/01/13 10:22:16;;;;;;;14.55;5.95;;;;;;;-6.37;55.98;101043.57;1690859;84;21016;-73
2022/01/13 10:24:45;;;;;;;13.38;7.08;;;;;;;-6.31;56.16;101066.72;1689979;84;21890;-71
2022/01/13 10:27:18;;;;;;;12.18;7.17;;;;;;;-6.32;56.44;101036.73;1698506;84;21055;-71
2022/01/13 10:29:52;;;;;;;14.25;7.58;;;;;;;-6.32;56.44;101036.73;1663220;84;21099;-71
2022/01/13 10:32:24;;;;;;;15.38;7.67;;;;;;;-6.31;57.23;101027.31;1690963;84;21064;-72
2022/01/13 10:34:58;;;;;;;20.00;10.05;;;;;;;-6.31;57.71;101033.30;1698781;84;21095;-71
2022/01/13 10:37:39;;;;;;;16.95;9.43;;;;;;;-6.31;57.71;101033.30;1691226;84;22479;-71
2022/01/13 10:40:15;;;;;;;13.20;7.05;;;;;;;-6.27;57.75;101034.14;1690006;84;21063;-71
2022/01/13 10:45:22;;;;;;;14.87;7.58;;;;;;;-6.17;58.16;101020.46;1683198;84;21063;-71
2022/01/13 10:47:57;;;;;;;18.62;9.35;;;;;;;-6.13;58.25;101014.44;1691352;84;21055;-72
2022/01/13 10:50:35;;;;;;;16.55;9.75;;;;;;;-6.14;58.45;101003.73;1690938;84;21921;-71
2022/01/13 10:53:05;;;;;;;16.27;9.53;;;;;;;-6.13;58.71;101000.30;1691174;84;21060;-71
2022/01/13 10:55:36;;;;;;;13.98;9.08;;;;;;;-6.11;58.93;100991.72;1690918;83;21064;-71
2022/01/13 10:58:02;;;;;;;19.67;9.73;;;;;;;-6.08;59.59;100991.73;1691047;84;21012;-71
2022/01/13 11:00:32;;;;;;;17.20;9.65;;;;;;;-6.03;59.59;100995.57;1690180;84;22184;-72
2022/01/13 11:03:17;;;;;;;18.27;10.40;;;;;;;-6.02;59.60;100999.85;1691217;84;21797;-71
2022/01/13 11:05:49;;;;;;;29.85;11.85;;;;;;;-6.00;59.77;100996.84;1690860;84;21055;-70
2022/01/13 11:08:31;;;;;;;24.15;11.57;;;;;;;-5.95;59.85;100991.70;1689252;84;21051;-71
2022/01/13 11:11:01;;;;;;;25.45;12.95;;;;;;;-5.97;59.86;100985.28;1690423;84;21085;-71
2022/01/13 11:13:30;;;;;;;27.55;13.70;;;;;;;-5.97;59.81;100978.85;1689552;85;21067;-70
2022/01/13 11:15:56;;;;;;;21.42;12.18;;;;;;;-5.94;60.07;100954.83;1689801;84;21665;-70
2022/01/13 11:18:26;;;;;;;23.98;12.15;;;;;;;-5.90;60.05;100961.66;1698700;84;21042;-70
2022/01/13 11:20:53;;;;;;;20.70;11.60;;;;;;;-5.87;60.28;100963.78;1694090;83;21016;-71
2022/01/13 11:23:20;;;;;;;21.25;12.13;;;;;;;-5.85;60.07;100959.48;1704557;83;21515;-70
2022/01/13 11:25:50;;;;;;;20.43;12.68;;;;;;;-5.87;60.10;100948.36;1719896;83;21447;-71
2022/01/13 11:28:16;;;;;;;20.10;13.03;;;;;;;-5.88;60.21;100953.51;1719867;83;21835;-70
2022/01/13 11:30:43;;;;;;;19.87;12.82;;;;;;;-5.88;60.45;100946.64;1719940;83;21523;-71
2022/01/13 11:33:09;;;;;;;21.23;12.58;;;;;;;-5.83;60.74;100948.75;1712476;83;20905;-70